PTSMC KTMB-KPBI
Flight info
| Callsign | PTSMC |
|---|---|
| Flight time | 0h 37m |
| Altitude | 6000 |
| Route | DHP V3 FLL V3 PBI |
| Aircraft | P28R/L-SG/C |
Departure
| Time | 2026-05-07 22:45 |
|---|---|
| Airport | Miami Executive Airport (KTMB) |
Arrival
| Time | 2026-05-07 23:22 |
|---|---|
| Airport | Palm Beach International Airport (KPBI) |
| Time | Latitude | Longitude | Altitude | Speed | Heading |
|---|---|---|---|---|---|
| 2026-05-07 22:26 | 25.64544 | -80.42793 | 15 ft | 0 kts | 360° |
| 2026-05-07 22:35 | 25.64547 | -80.42796 | 16 ft | 3 kts | 290° |
| 2026-05-07 22:36 | 25.64522 | -80.42830 | 15 ft | 7 kts | 239° |
| 2026-05-07 22:36 | 25.64486 | -80.42862 | 14 ft | 7 kts | 188° |
| 2026-05-07 22:36 | 25.64454 | -80.42891 | 13 ft | 7 kts | 256° |
| 2026-05-07 22:36 | 25.64451 | -80.42939 | 12 ft | 6 kts | 265° |
| 2026-05-07 22:37 | 25.64454 | -80.42957 | 12 ft | 0 kts | 284° |
| 2026-05-07 22:37 | 25.64451 | -80.42972 | 12 ft | 9 kts | 256° |
| 2026-05-07 22:37 | 25.64454 | -80.43012 | 12 ft | 4 kts | 305° |
| 2026-05-07 22:37 | 25.64473 | -80.43039 | 11 ft | 6 kts | 305° |
| 2026-05-07 22:38 | 25.64513 | -80.43095 | 10 ft | 12 kts | 310° |
| 2026-05-07 22:38 | 25.64569 | -80.43174 | 9 ft | 14 kts | 307° |
| 2026-05-07 22:38 | 25.64625 | -80.43255 | 10 ft | 13 kts | 308° |
| 2026-05-07 22:38 | 25.64677 | -80.43330 | 10 ft | 12 kts | 311° |
| 2026-05-07 22:39 | 25.64729 | -80.43404 | 10 ft | 12 kts | 306° |
| 2026-05-07 22:39 | 25.64777 | -80.43477 | 11 ft | 11 kts | 309° |
| 2026-05-07 22:39 | 25.64821 | -80.43539 | 12 ft | 9 kts | 309° |
| 2026-05-07 22:39 | 25.64859 | -80.43592 | 13 ft | 8 kts | 309° |
| 2026-05-07 22:40 | 25.64893 | -80.43642 | 13 ft | 8 kts | 305° |
| 2026-05-07 22:40 | 25.64908 | -80.43664 | 13 ft | 9 kts | 308° |
| 2026-05-07 22:41 | 25.64909 | -80.43666 | 13 ft | 9 kts | 308° |
| 2026-05-07 22:41 | 25.64945 | -80.43721 | 13 ft | 9 kts | 301° |
| 2026-05-07 22:41 | 25.64981 | -80.43772 | 13 ft | 8 kts | 306° |
| 2026-05-07 22:41 | 25.65013 | -80.43821 | 14 ft | 7 kts | 308° |
| 2026-05-07 22:42 | 25.65046 | -80.43867 | 13 ft | 8 kts | 310° |
| 2026-05-07 22:42 | 25.65082 | -80.43917 | 13 ft | 9 kts | 308° |
| 2026-05-07 22:42 | 25.65128 | -80.43973 | 11 ft | 11 kts | 339° |
| 2026-05-07 22:42 | 25.65197 | -80.43978 | 10 ft | 1 kts | 359° |
| 2026-05-07 22:43 | 25.65219 | -80.43978 | 10 ft | 10 kts | 6° |
| 2026-05-07 22:43 | 25.65265 | -80.43883 | 10 ft | 20 kts | 90° |
| 2026-05-07 22:44 | 25.65281 | -80.43584 | 17 ft | 62 kts | 96° |
| 2026-05-07 22:44 | 25.65339 | -80.42989 | 56 ft | 89 kts | 86° |
| 2026-05-07 22:44 | 25.65416 | -80.42265 | 222 ft | 101 kts | 92° |
| 2026-05-07 22:44 | 25.65520 | -80.41503 | 536 ft | 98 kts | 87° |
| 2026-05-07 22:45 | 25.65646 | -80.40772 | 755 ft | 102 kts | 83° |
| 2026-05-07 22:45 | 25.65767 | -80.39946 | 828 ft | 115 kts | 95° |
| 2026-05-07 22:45 | 25.65793 | -80.39071 | 979 ft | 112 kts | 91° |
| 2026-05-07 22:45 | 25.65804 | -80.38240 | 1200 ft | 104 kts | 92° |
| 2026-05-07 22:46 | 25.65851 | -80.37453 | 1441 ft | 102 kts | 90° |
| 2026-05-07 22:46 | 25.65908 | -80.36652 | 1605 ft | 108 kts | 90° |
| 2026-05-07 22:46 | 25.65972 | -80.35785 | 1738 ft | 115 kts | 89° |
| 2026-05-07 22:46 | 25.66044 | -80.34889 | 1881 ft | 117 kts | 89° |
| 2026-05-07 22:47 | 25.66209 | -80.34024 | 2014 ft | 119 kts | 58° |
| 2026-05-07 22:47 | 25.66958 | -80.33719 | 2140 ft | 121 kts | 354° |
| 2026-05-07 22:47 | 25.67795 | -80.33772 | 2295 ft | 124 kts | 358° |
| 2026-05-07 22:47 | 25.68658 | -80.33791 | 2451 ft | 126 kts | 355° |
| 2026-05-07 22:48 | 25.69535 | -80.33803 | 2602 ft | 127 kts | 357° |
| 2026-05-07 22:48 | 25.70416 | -80.33802 | 2752 ft | 128 kts | 356° |
| 2026-05-07 22:48 | 25.71302 | -80.33783 | 2906 ft | 126 kts | 357° |
| 2026-05-07 22:48 | 25.72171 | -80.33765 | 3050 ft | 123 kts | 355° |
| 2026-05-07 22:49 | 25.73007 | -80.33841 | 3181 ft | 117 kts | 332° |
| 2026-05-07 22:49 | 25.73729 | -80.34223 | 3329 ft | 115 kts | 331° |
| 2026-05-07 22:49 | 25.74525 | -80.34337 | 3462 ft | 119 kts | 356° |
| 2026-05-07 22:49 | 25.75341 | -80.34322 | 3604 ft | 117 kts | 353° |
| 2026-05-07 22:50 | 25.76142 | -80.34323 | 3743 ft | 114 kts | 353° |
| 2026-05-07 22:50 | 25.76932 | -80.34327 | 3891 ft | 114 kts | 354° |
| 2026-05-07 22:50 | 25.77723 | -80.34331 | 4033 ft | 114 kts | 354° |
| 2026-05-07 22:50 | 25.78524 | -80.34334 | 4174 ft | 115 kts | 353° |
| 2026-05-07 22:51 | 25.79323 | -80.34336 | 4323 ft | 115 kts | 353° |
| 2026-05-07 22:51 | 25.80127 | -80.34341 | 4475 ft | 116 kts | 353° |
| 2026-05-07 22:51 | 25.80935 | -80.34343 | 4619 ft | 115 kts | 353° |
| 2026-05-07 22:51 | 25.81737 | -80.34347 | 4767 ft | 115 kts | 353° |
| 2026-05-07 22:52 | 25.82524 | -80.34351 | 4911 ft | 114 kts | 353° |
| 2026-05-07 22:52 | 25.83318 | -80.34356 | 5049 ft | 114 kts | 354° |
| 2026-05-07 22:52 | 25.84112 | -80.34359 | 5190 ft | 113 kts | 353° |
| 2026-05-07 22:52 | 25.84899 | -80.34363 | 5331 ft | 113 kts | 353° |
| 2026-05-07 22:53 | 25.85682 | -80.34366 | 5478 ft | 113 kts | 354° |
| 2026-05-07 22:53 | 25.86472 | -80.34371 | 5623 ft | 114 kts | 353° |
| 2026-05-07 22:53 | 25.87265 | -80.34374 | 5767 ft | 113 kts | 354° |
| 2026-05-07 22:53 | 25.88052 | -80.34379 | 5907 ft | 113 kts | 354° |
| 2026-05-07 22:54 | 25.88834 | -80.34382 | 6053 ft | 112 kts | 355° |
| 2026-05-07 22:54 | 25.89599 | -80.34386 | 6196 ft | 111 kts | 354° |
| 2026-05-07 22:54 | 25.90386 | -80.34391 | 6263 ft | 120 kts | 353° |
| 2026-05-07 22:54 | 25.91260 | -80.34396 | 6239 ft | 131 kts | 354° |
| 2026-05-07 22:55 | 25.92206 | -80.34399 | 6132 ft | 143 kts | 355° |
| 2026-05-07 22:55 | 25.93229 | -80.34403 | 6006 ft | 148 kts | 356° |
| 2026-05-07 22:55 | 25.94246 | -80.34405 | 6025 ft | 144 kts | 355° |
| 2026-05-07 22:55 | 25.95242 | -80.34408 | 6032 ft | 142 kts | 356° |
| 2026-05-07 22:56 | 25.96229 | -80.34414 | 6026 ft | 142 kts | 355° |
| 2026-05-07 22:56 | 25.97198 | -80.34419 | 6031 ft | 141 kts | 355° |
| 2026-05-07 22:56 | 25.98185 | -80.34423 | 6018 ft | 140 kts | 356° |
| 2026-05-07 22:56 | 25.99142 | -80.34428 | 6015 ft | 139 kts | 355° |
| 2026-05-07 22:57 | 26.00108 | -80.34433 | 6006 ft | 139 kts | 355° |
| 2026-05-07 22:57 | 26.01074 | -80.34438 | 6007 ft | 139 kts | 355° |
| 2026-05-07 22:57 | 26.02045 | -80.34442 | 6010 ft | 139 kts | 355° |
| 2026-05-07 22:57 | 26.03027 | -80.34448 | 5905 ft | 146 kts | 355° |
| 2026-05-07 22:58 | 26.04075 | -80.34454 | 5715 ft | 154 kts | 356° |
| 2026-05-07 22:58 | 26.05156 | -80.34458 | 5527 ft | 157 kts | 355° |
| 2026-05-07 22:58 | 26.06252 | -80.34463 | 5342 ft | 158 kts | 355° |
| 2026-05-07 22:58 | 26.07339 | -80.34467 | 5161 ft | 158 kts | 355° |
| 2026-05-07 22:59 | 26.08446 | -80.34472 | 4974 ft | 160 kts | 355° |
| 2026-05-07 22:59 | 26.09555 | -80.34478 | 4779 ft | 160 kts | 356° |
| 2026-05-07 22:59 | 26.10665 | -80.34482 | 4600 ft | 159 kts | 355° |
| 2026-05-07 22:59 | 26.11774 | -80.34488 | 4397 ft | 159 kts | 356° |
| 2026-05-07 23:00 | 26.12887 | -80.34493 | 4202 ft | 159 kts | 355° |
| 2026-05-07 23:00 | 26.13989 | -80.34499 | 4008 ft | 158 kts | 356° |
| 2026-05-07 23:00 | 26.15093 | -80.34504 | 3818 ft | 159 kts | 355° |
| 2026-05-07 23:00 | 26.16203 | -80.34509 | 3615 ft | 159 kts | 355° |
| 2026-05-07 23:01 | 26.17309 | -80.34513 | 3429 ft | 159 kts | 356° |
| 2026-05-07 23:01 | 26.18416 | -80.34520 | 3245 ft | 160 kts | 356° |
| 2026-05-07 23:01 | 26.19522 | -80.34526 | 3047 ft | 161 kts | 355° |
| 2026-05-07 23:01 | 26.20629 | -80.34529 | 2984 ft | 156 kts | 356° |
| 2026-05-07 23:02 | 26.21697 | -80.34535 | 2982 ft | 151 kts | 356° |
| 2026-05-07 23:02 | 26.22692 | -80.34537 | 3179 ft | 136 kts | 355° |
| 2026-05-07 23:02 | 26.23602 | -80.34541 | 3373 ft | 126 kts | 355° |
| 2026-05-07 23:02 | 26.24451 | -80.34547 | 3570 ft | 118 kts | 353° |
| 2026-05-07 23:03 | 26.25260 | -80.34552 | 3765 ft | 114 kts | 354° |
| 2026-05-07 23:03 | 26.26030 | -80.34561 | 3970 ft | 108 kts | 353° |
| 2026-05-07 23:03 | 26.26827 | -80.34582 | 3986 ft | 123 kts | 354° |
| 2026-05-07 23:03 | 26.27719 | -80.34601 | 3987 ft | 132 kts | 354° |
| 2026-05-07 23:04 | 26.28646 | -80.34632 | 3989 ft | 137 kts | 354° |
| 2026-05-07 23:04 | 26.29608 | -80.34667 | 3988 ft | 139 kts | 354° |
| 2026-05-07 23:04 | 26.30579 | -80.34699 | 3984 ft | 140 kts | 354° |
| 2026-05-07 23:04 | 26.31555 | -80.34736 | 3981 ft | 140 kts | 353° |
| 2026-05-07 23:05 | 26.32530 | -80.34771 | 3990 ft | 140 kts | 354° |
| 2026-05-07 23:05 | 26.33506 | -80.34793 | 3987 ft | 140 kts | 355° |
| 2026-05-07 23:05 | 26.34478 | -80.34805 | 3983 ft | 141 kts | 355° |
| 2026-05-07 23:05 | 26.35461 | -80.34814 | 3987 ft | 142 kts | 355° |
| 2026-05-07 23:06 | 26.36457 | -80.34826 | 3988 ft | 143 kts | 355° |
| 2026-05-07 23:06 | 26.37458 | -80.34838 | 3992 ft | 144 kts | 355° |
| 2026-05-07 23:06 | 26.38481 | -80.34852 | 3843 ft | 153 kts | 355° |
| 2026-05-07 23:06 | 26.39575 | -80.34872 | 3628 ft | 159 kts | 355° |
| 2026-05-07 23:07 | 26.40676 | -80.34900 | 3427 ft | 161 kts | 354° |
| 2026-05-07 23:07 | 26.41804 | -80.34932 | 3221 ft | 163 kts | 355° |
| 2026-05-07 23:07 | 26.42946 | -80.34967 | 3009 ft | 165 kts | 355° |
| 2026-05-07 23:07 | 26.44042 | -80.35000 | 2913 ft | 147 kts | 355° |
| 2026-05-07 23:08 | 26.45018 | -80.35023 | 2910 ft | 134 kts | 356° |
| 2026-05-07 23:08 | 26.45924 | -80.35045 | 2872 ft | 130 kts | 355° |
| 2026-05-07 23:08 | 26.46848 | -80.35069 | 2729 ft | 133 kts | 354° |
| 2026-05-07 23:08 | 26.47763 | -80.35094 | 2609 ft | 134 kts | 356° |
| 2026-05-07 23:09 | 26.48696 | -80.35120 | 2487 ft | 134 kts | 356° |
| 2026-05-07 23:09 | 26.49609 | -80.35148 | 2473 ft | 128 kts | 356° |
| 2026-05-07 23:09 | 26.50490 | -80.35176 | 2469 ft | 126 kts | 355° |
| 2026-05-07 23:09 | 26.51361 | -80.35206 | 2474 ft | 124 kts | 355° |
| 2026-05-07 23:10 | 26.52219 | -80.35238 | 2474 ft | 122 kts | 355° |
| 2026-05-07 23:10 | 26.53064 | -80.35274 | 2471 ft | 120 kts | 356° |
| 2026-05-07 23:10 | 26.53890 | -80.35310 | 2479 ft | 118 kts | 356° |
| 2026-05-07 23:10 | 26.54711 | -80.35348 | 2471 ft | 118 kts | 355° |
| 2026-05-07 23:11 | 26.55578 | -80.35395 | 2294 ft | 130 kts | 355° |
| 2026-05-07 23:11 | 26.56494 | -80.35447 | 2119 ft | 137 kts | 356° |
| 2026-05-07 23:11 | 26.57457 | -80.35502 | 1983 ft | 137 kts | 356° |
| 2026-05-07 23:11 | 26.58377 | -80.35554 | 1994 ft | 129 kts | 356° |
| 2026-05-07 23:12 | 26.59259 | -80.35607 | 1993 ft | 126 kts | 356° |
| 2026-05-07 23:12 | 26.60126 | -80.35663 | 1994 ft | 123 kts | 356° |
| 2026-05-07 23:12 | 26.60973 | -80.35694 | 1987 ft | 120 kts | 7° |
| 2026-05-07 23:12 | 26.61758 | -80.35421 | 1992 ft | 118 kts | 20° |
| 2026-05-07 23:13 | 26.62554 | -80.35105 | 1901 ft | 124 kts | 20° |
| 2026-05-07 23:13 | 26.63359 | -80.34788 | 1895 ft | 123 kts | 20° |
| 2026-05-07 23:13 | 26.64163 | -80.34474 | 1899 ft | 123 kts | 20° |
| 2026-05-07 23:13 | 26.64980 | -80.34153 | 1902 ft | 125 kts | 20° |
| 2026-05-07 23:14 | 26.65800 | -80.33832 | 1905 ft | 125 kts | 20° |
| 2026-05-07 23:14 | 26.66615 | -80.33515 | 1908 ft | 124 kts | 20° |
| 2026-05-07 23:14 | 26.67413 | -80.33140 | 1894 ft | 124 kts | 35° |
| 2026-05-07 23:14 | 26.68116 | -80.32587 | 1900 ft | 123 kts | 34° |
| 2026-05-07 23:15 | 26.68814 | -80.32047 | 1898 ft | 120 kts | 43° |
| 2026-05-07 23:15 | 26.69067 | -80.31224 | 1897 ft | 114 kts | 92° |
| 2026-05-07 23:15 | 26.69092 | -80.30326 | 1895 ft | 114 kts | 90° |
| 2026-05-07 23:15 | 26.69092 | -80.29455 | 1898 ft | 114 kts | 91° |
| 2026-05-07 23:16 | 26.69074 | -80.28577 | 1900 ft | 113 kts | 92° |
| 2026-05-07 23:16 | 26.69050 | -80.27704 | 1903 ft | 112 kts | 93° |
| 2026-05-07 23:16 | 26.69018 | -80.26845 | 1898 ft | 111 kts | 94° |
| 2026-05-07 23:16 | 26.68981 | -80.25981 | 1899 ft | 111 kts | 94° |
| 2026-05-07 23:17 | 26.68940 | -80.25113 | 1898 ft | 112 kts | 94° |
| 2026-05-07 23:17 | 26.68904 | -80.24254 | 1904 ft | 110 kts | 94° |
| 2026-05-07 23:17 | 26.68868 | -80.23393 | 1905 ft | 111 kts | 94° |
| 2026-05-07 23:17 | 26.68831 | -80.22525 | 1907 ft | 112 kts | 94° |
| 2026-05-07 23:18 | 26.68794 | -80.21651 | 1904 ft | 113 kts | 94° |
| 2026-05-07 23:18 | 26.68749 | -80.20756 | 1788 ft | 121 kts | 94° |
| 2026-05-07 23:18 | 26.68708 | -80.19822 | 1638 ft | 119 kts | 95° |
| 2026-05-07 23:18 | 26.68670 | -80.18927 | 1486 ft | 110 kts | 94° |
| 2026-05-07 23:19 | 26.68635 | -80.18112 | 1339 ft | 99 kts | 95° |
| 2026-05-07 23:19 | 26.68604 | -80.17384 | 1218 ft | 91 kts | 95° |
| 2026-05-07 23:19 | 26.68574 | -80.16683 | 1098 ft | 88 kts | 93° |
| 2026-05-07 23:19 | 26.68547 | -80.16031 | 995 ft | 80 kts | 96° |
| 2026-05-07 23:20 | 26.68523 | -80.15414 | 898 ft | 79 kts | 95° |
| 2026-05-07 23:20 | 26.68494 | -80.14816 | 813 ft | 78 kts | 95° |
| 2026-05-07 23:20 | 26.68465 | -80.14176 | 698 ft | 85 kts | 97° |
| 2026-05-07 23:20 | 26.68442 | -80.13554 | 590 ft | 75 kts | 96° |
| 2026-05-07 23:21 | 26.68414 | -80.12981 | 490 ft | 72 kts | 98° |
| 2026-05-07 23:21 | 26.68409 | -80.12441 | 368 ft | 70 kts | 94° |
| 2026-05-07 23:21 | 26.68373 | -80.11899 | 275 ft | 69 kts | 100° |
| 2026-05-07 23:21 | 26.68354 | -80.11365 | 160 ft | 69 kts | 95° |
| 2026-05-07 23:22 | 26.68327 | -80.10847 | 72 ft | 64 kts | 96° |
| 2026-05-07 23:22 | 26.68306 | -80.10377 | 25 ft | 56 kts | 96° |
| 2026-05-07 23:22 | 26.68286 | -80.10049 | 25 ft | 26 kts | 96° |
| 2026-05-07 23:22 | 26.68257 | -80.09933 | 23 ft | 11 kts | 134° |
| 2026-05-07 23:23 | 26.68200 | -80.09921 | 24 ft | 7 kts | 178° |
| 2026-05-07 23:23 | 26.68159 | -80.09921 | 24 ft | 5 kts | 181° |
| 2026-05-07 23:23 | 26.68123 | -80.09923 | 23 ft | 5 kts | 184° |
| 2026-05-07 23:23 | 26.68086 | -80.09925 | 22 ft | 5 kts | 182° |
| 2026-05-07 23:24 | 26.68050 | -80.09926 | 21 ft | 5 kts | 180° |
| 2026-05-07 23:24 | 26.68014 | -80.09929 | 20 ft | 5 kts | 186° |
| 2026-05-07 23:24 | 26.67980 | -80.09942 | 19 ft | 7 kts | 200° |
| 2026-05-07 23:24 | 26.67928 | -80.09970 | 19 ft | 5 kts | 220° |
| 2026-05-07 23:25 | 26.67919 | -80.09990 | 19 ft | 0 kts | 270° |